Time;durP1;ratioP1;P1;durP2;ratioP2;P2;SDS_P1;SDS_P2;PMS_P1;PMS_P2;Temp;Humidity;BMP_temperature;BMP_pressure;BME280_temperature;BME280_humidity;BME280_pressure;Samples;Min_cycle;Max_cycle;Signal;HPM_P1;HPM_P2
2022/12/23 00:00:41;;;;;;;2.20;1.10;;;;;;;19.00;53.28;99289.19;5062364;28;20184;-67
2022/12/23 00:03:06;;;;;;;4.07;1.50;;;;;;;18.99;53.33;99281.84;5050505;28;20163;-67
2022/12/23 00:05:36;;;;;;;4.60;1.50;;;;;;;18.96;53.30;99286.34;5051059;28;20234;-67
2022/12/23 00:08:01;;;;;;;3.77;1.53;;;;;;;18.98;53.73;99278.19;5034045;28;20194;-67
2022/12/23 00:10:27;;;;;;;2.30;1.23;;;;;;;18.99;53.46;99276.97;5000622;28;20418;-67
2022/12/23 00:15:36;;;;;;;2.53;1.10;;;;;;;18.98;53.27;99281.06;5059758;28;20233;-67
2022/12/23 00:18:02;;;;;;;4.40;1.57;;;;;;;18.85;53.30;99291.25;5053978;28;20434;-67
2022/12/23 00:20:27;;;;;;;4.57;1.50;;;;;;;18.52;55.56;99285.09;5050704;28;20179;-67
2022/12/23 00:23:05;;;;;;;3.20;1.50;;;;;;;18.38;55.50;99285.88;5033383;28;20174;-66
2022/12/23 00:25:43;;;;;;;3.90;2.00;;;;;;;18.36;56.29;99296.09;5080166;28;20819;-66
2022/12/23 00:28:10;;;;;;;7.17;2.50;;;;;;;18.19;56.62;99293.94;5035146;28;20465;-67
2022/12/23 00:30:37;;;;;;;4.23;2.13;;;;;;;18.29;56.71;99293.97;5063805;28;20450;-67
2022/12/23 00:33:03;;;;;;;5.53;2.60;;;;;;;18.59;56.33;99303.06;5049287;28;20436;-67
2022/12/23 00:35:30;;;;;;;19.20;2.97;;;;;;;18.73;56.37;99288.81;5035837;28;20418;-66
2022/12/23 00:37:56;;;;;;;8.00;2.03;;;;;;;18.78;56.09;99288.41;5060391;28;20436;-66
2022/12/23 00:43:05;;;;;;;23.23;3.00;;;;;;;18.88;57.36;99298.19;5043128;28;20290;-66
2022/12/23 00:45:31;;;;;;;12.10;2.63;;;;;;;18.97;57.21;99296.56;5031087;28;20449;-66
2022/12/23 00:50:40;;;;;;;13.33;2.80;;;;;;;19.08;56.78;99310.88;5072292;28;20182;-67
2022/12/23 00:53:06;;;;;;;19.63;3.33;;;;;;;19.09;56.47;99306.78;5062843;28;20439;-67
2022/12/23 00:55:31;;;;;;;10.73;2.10;;;;;;;19.10;56.25;99312.09;5048619;28;20572;-68
2022/12/23 00:57:57;;;;;;;6.77;2.37;;;;;;;19.07;56.19;99327.22;5031418;28;20160;-67
2022/12/23 01:05:35;;;;;;;9.63;2.60;;;;;;;19.13;56.12;99334.19;5067254;28;20170;-66
2022/12/23 01:05:59;;;;;;;14.13;2.47;;;;;;;19.09;55.79;99326.81;5048735;28;20840;-66
2022/12/23 01:08:24;;;;;;;10.50;3.50;;;;;;;19.10;55.45;99337.84;5049342;28;20434;-66
2022/12/23 01:10:50;;;;;;;8.97;1.70;;;;;;;19.17;55.93;99332.13;5036830;28;20487;-66
2022/12/23 01:13:15;;;;;;;10.73;2.20;;;;;;;19.14;55.54;99335.81;5062364;28;20186;-67
2022/12/23 01:15:41;;;;;;;9.43;2.50;;;;;;;19.09;55.65;99332.53;5018779;28;20186;-67
2022/12/23 01:18:06;;;;;;;7.40;2.20;;;;;;;19.13;55.58;99334.19;5070423;28;20178;-67
2022/12/23 01:20:31;;;;;;;12.50;2.70;;;;;;;19.05;54.75;99337.44;5067379;28;20183;-67
2022/12/23 01:22:57;;;;;;;12.30;3.00;;;;;;;19.08;54.58;99348.91;5016239;28;20297;-67
2022/12/23 01:25:22;;;;;;;13.50;2.93;;;;;;;19.03;55.00;99343.59;5070792;28;20685;-67
2022/12/23 01:27:48;;;;;;;6.00;2.03;;;;;;;19.09;55.17;99350.53;5038111;28;20190;-67
2022/12/23 01:30:13;;;;;;;9.47;2.80;;;;;;;19.09;55.28;99349.69;5054296;28;20179;-67
2022/12/23 01:32:38;;;;;;;12.87;2.53;;;;;;;19.04;55.34;99350.94;5045316;28;20182;-67
2022/12/23 01:35:04;;;;;;;6.90;1.73;;;;;;;19.05;55.33;99363.16;5073865;28;20166;-67
2022/12/23 01:37:29;;;;;;;10.27;2.33;;;;;;;19.02;55.25;99375.44;5036825;28;20537;-67
2022/12/23 01:39:55;;;;;;;7.17;1.97;;;;;;;19.04;55.77;99382.41;5067251;28;20209;-67
2022/12/23 01:45:14;;;;;;;8.37;2.30;;;;;;;19.03;55.94;99400.78;5035389;28;20889;-67
2022/12/23 01:47:54;;;;;;;8.43;2.30;;;;;;;19.03;55.48;99402.81;5034869;28;20522;-67
2022/12/23 01:50:26;;;;;;;9.83;1.57;;;;;;;19.01;55.39;99397.50;5049621;28;20422;-67
2022/12/23 01:53:11;;;;;;;9.00;2.47;;;;;;;19.00;55.81;99409.34;5038291;28;20433;-67
2022/12/23 01:55:43;;;;;;;5.97;2.17;;;;;;;19.01;55.80;99411.81;5025107;28;20461;-67
2022/12/23 01:58:14;;;;;;;11.73;2.00;;;;;;;18.99;55.73;99417.13;5036204;28;20431;-67
2022/12/23 02:03:42;;;;;;;6.90;1.80;;;;;;;18.99;55.49;99425.72;5061446;28;20556;-67
2022/12/23 02:09:18;;;;;;;4.47;1.80;;;;;;;18.98;55.57;99434.69;5046156;28;20456;-67
2022/12/23 02:11:46;;;;;;;8.20;2.07;;;;;;;19.00;55.61;99435.91;5055208;28;20751;-67
2022/12/23 02:17:24;;;;;;;3.77;1.73;;;;;;;18.98;55.49;99446.97;5053495;28;20393;-67
2022/12/23 02:19:56;;;;;;;6.60;1.80;;;;;;;18.97;55.85;99451.03;5038061;28;20429;-67
2022/12/23 02:22:54;;;;;;;9.00;1.60;;;;;;;18.98;55.62;99464.13;5035387;28;20422;-67
2022/12/23 02:25:25;;;;;;;6.07;1.70;;;;;;;18.98;55.65;99474.72;5009395;28;20469;-67
2022/12/23 02:28:31;;;;;;;9.37;2.17;;;;;;;18.97;55.72;99468.19;5072038;28;20512;-67
2022/12/23 02:31:14;;;;;;;13.10;1.73;;;;;;;18.98;55.72;99484.16;5004117;28;21042;-67
2022/12/23 02:33:47;;;;;;;13.20;3.10;;;;;;;18.98;56.06;99475.56;5055486;28;20425;-67
2022/12/23 02:36:33;;;;;;;5.20;1.77;;;;;;;19.00;55.88;99478.81;5039267;28;20401;-67
2022/12/23 02:39:02;;;;;;;8.13;1.80;;;;;;;18.99;55.68;99480.06;5067402;28;20822;-66
2022/12/23 02:41:38;;;;;;;6.43;1.63;;;;;;;18.97;56.01;99476.75;5055471;28;20398;-67
2022/12/23 02:44:17;;;;;;;6.30;1.80;;;;;;;18.99;55.51;99487.81;5035274;28;20402;-67
2022/12/23 02:47:08;;;;;;;4.80;1.63;;;;;;;19.01;55.53;99488.25;5036394;28;20464;-67
2022/12/23 02:49:39;;;;;;;7.37;2.30;;;;;;;18.99;55.61;99491.50;5034796;28;20808;-67
2022/12/23 02:52:08;;;;;;;5.97;2.00;;;;;;;19.00;55.51;99492.28;5034872;28;20414;-67
2022/12/23 02:54:40;;;;;;;7.37;1.70;;;;;;;18.98;55.86;99492.72;5023800;28;20463;-67
2022/12/23 02:57:05;;;;;;;10.63;1.90;;;;;;;18.97;55.72;99504.56;5015204;28;20427;-67
2022/12/23 02:59:42;;;;;;;4.77;1.67;;;;;;;18.98;55.62;99512.75;5015148;28;20418;-67
2022/12/23 03:02:08;;;;;;;3.50;1.10;;;;;;;19.00;55.42;99518.03;4994882;28;20176;-67
2022/12/23 03:04:33;;;;;;;9.40;1.83;;;;;;;19.00;55.74;99523.75;5027489;28;20869;-66
2022/12/23 03:06:59;;;;;;;4.47;1.30;;;;;;;19.01;55.64;99528.28;5032751;28;20565;-67
2022/12/23 03:09:36;;;;;;;6.20;1.80;;;;;;;18.99;55.40;99527.84;5015785;28;20187;-67
2022/12/23 03:12:07;;;;;;;6.67;2.00;;;;;;;18.95;55.88;99530.72;5017769;28;20785;-67
2022/12/23 03:14:35;;;;;;;3.80;1.57;;;;;;;18.98;55.25;99529.91;5002159;28;20448;-67
2022/12/23 03:17:09;;;;;;;6.10;1.60;;;;;;;18.95;55.69;99535.59;5033820;28;20976;-67
2022/12/23 03:19:55;;;;;;;5.73;1.50;;;;;;;18.92;55.77;99534.34;5030494;28;20450;-67
2022/12/23 03:22:39;;;;;;;5.67;1.40;;;;;;;18.94;55.70;99531.09;5011431;28;20408;-67
2022/12/23 03:25:12;;;;;;;5.57;1.70;;;;;;;18.97;55.53;99539.69;5028092;28;20458;-67
2022/12/23 03:27:43;;;;;;;7.80;2.30;;;;;;;18.98;55.02;99535.63;4998108;28;20439;-67
2022/12/23 03:30:11;;;;;;;7.60;1.67;;;;;;;18.94;55.65;99526.22;5027415;28;20462;-67
2022/12/23 03:32:46;;;;;;;5.57;1.60;;;;;;;18.95;56.08;99529.88;5018408;28;20432;-67
2022/12/23 03:35:11;;;;;;;4.10;1.30;;;;;;;18.97;55.57;99533.16;4990981;28;20461;-67
2022/12/23 03:37:39;;;;;;;4.30;1.53;;;;;;;18.95;55.70;99539.28;4991508;28;20471;-67
2022/12/23 03:40:14;;;;;;;4.27;1.30;;;;;;;18.95;55.45;99536.44;5005150;28;20272;-67
2022/12/23 03:42:40;;;;;;;4.37;1.40;;;;;;;18.94;55.61;99539.69;5019544;28;20957;-67
2022/12/23 03:45:15;;;;;;;8.13;1.93;;;;;;;18.93;55.56;99538.88;4994991;28;20471;-67
2022/12/23 03:47:44;;;;;;;5.00;1.40;;;;;;;18.92;55.76;99542.94;5012345;28;20477;-67
2022/12/23 03:50:11;;;;;;;5.17;1.80;;;;;;;18.94;55.97;99542.53;4992736;28;20618;-67
2022/12/23 03:52:42;;;;;;;8.43;1.90;;;;;;;18.94;55.92;99548.25;5011679;28;20440;-67
2022/12/23 03:55:11;;;;;;;8.83;1.23;;;;;;;18.93;55.77;99549.50;4994802;28;20460;-67
2022/12/23 03:57:40;;;;;;;5.27;2.07;;;;;;;18.94;55.87;99540.50;4995444;28;20780;-67
2022/12/23 04:00:06;;;;;;;5.00;1.67;;;;;;;18.93;55.54;99541.75;4992820;28;20404;-67
2022/12/23 04:02:37;;;;;;;5.30;1.40;;;;;;;18.91;55.73;99544.16;5009033;28;21010;-67
2022/12/23 04:05:22;;;;;;;3.90;1.40;;;;;;;18.95;55.18;99541.31;5023977;28;20466;-67
2022/12/23 04:07:52;;;;;;;3.03;1.33;;;;;;;18.88;55.75;99547.00;5011539;28;20435;-67
2022/12/23 04:10:20;;;;;;;3.30;1.30;;;;;;;18.88;55.49;99561.31;5021951;28;20476;-67
2022/12/23 04:12:45;;;;;;;6.70;1.50;;;;;;;18.89;55.57;99560.09;5019182;28;20443;-67
2022/12/23 04:15:10;;;;;;;4.17;1.37;;;;;;;18.88;55.44;99567.88;5017374;28;20453;-67
2022/12/23 04:17:36;;;;;;;3.90;1.40;;;;;;;18.90;55.44;99564.59;5016197;28;20232;-67
2022/12/23 04:20:01;;;;;;;4.33;1.70;;;;;;;18.91;55.50;99563.38;5021759;28;20193;-67
2022/12/23 04:22:27;;;;;;;4.13;1.43;;;;;;;18.92;55.44;99565.81;5012276;28;20192;-67
2022/12/23 04:24:52;;;;;;;5.23;1.53;;;;;;;18.93;55.11;99567.47;5009622;28;20185;-67
2022/12/23 04:27:18;;;;;;;7.43;1.67;;;;;;;18.94;55.02;99565.44;5012210;28;20239;-67
2022/12/23 04:29:43;;;;;;;3.60;1.13;;;;;;;18.92;55.59;99562.16;5009844;28;20989;-67
2022/12/23 04:32:08;;;;;;;6.53;1.40;;;;;;;18.91;55.29;99564.19;5008657;28;20161;-67
2022/12/23 04:34:34;;;;;;;6.10;1.40;;;;;;;18.91;55.61;99560.53;5024444;28;20259;-67
2022/12/23 04:36:59;;;;;;;6.10;1.50;;;;;;;18.90;55.53;99562.56;5027779;28;20168;-67
2022/12/23 04:39:25;;;;;;;9.63;1.80;;;;;;;18.93;55.17;99563.78;5017721;28;20185;-67
2022/12/23 04:41:50;;;;;;;4.13;1.37;;;;;;;18.89;55.26;99560.09;5010807;28;20169;-67
2022/12/23 04:44:16;;;;;;;7.07;1.80;;;;;;;18.91;55.16;99574.81;5013554;28;20548;-68
2022/12/23 04:46:41;;;;;;;5.13;1.53;;;;;;;18.90;55.31;99559.69;5009587;28;20184;-67
2022/12/23 04:49:07;;;;;;;7.10;1.50;;;;;;;18.92;55.13;99562.97;4999844;28;20224;-67
2022/12/23 04:51:32;;;;;;;4.77;1.60;;;;;;;18.92;55.80;99557.25;5011424;28;20165;-67
2022/12/23 04:53:58;;;;;;;7.83;1.47;;;;;;;18.91;55.09;99561.31;5011247;28;20216;-67
2022/12/23 04:56:23;;;;;;;5.90;1.73;;;;;;;18.94;55.08;99576.88;5012598;28;20296;-67
2022/12/23 04:58:48;;;;;;;5.30;1.40;;;;;;;18.91;55.36;99560.53;5007898;28;20181;-67
2022/12/23 05:01:14;;;;;;;4.70;2.00;;;;;;;18.91;55.20;99546.22;5014977;28;20177;-67
2022/12/23 05:03:39;;;;;;;3.17;1.33;;;;;;;18.88;55.17;99552.75;5019652;28;20249;-67
2022/12/23 05:06:05;;;;;;;4.57;1.63;;;;;;;18.90;55.21;99541.69;5031728;28;20196;-67
2022/12/23 05:08:30;;;;;;;3.90;1.10;;;;;;;18.92;55.10;99545.00;5029953;28;20180;-67
2022/12/23 05:10:56;;;;;;;5.10;1.33;;;;;;;18.90;55.60;99558.88;5035709;28;20650;-67
2022/12/23 05:13:21;;;;;;;9.10;2.00;;;;;;;18.90;55.31;99561.72;5015384;28;20194;-67
2022/12/23 05:15:51;;;;;;;8.07;1.57;;;;;;;18.90;55.53;99559.69;5020861;28;20188;-68
2022/12/23 05:18:16;;;;;;;5.57;1.73;;;;;;;18.92;55.12;99557.25;5011885;28;20212;-67
2022/12/23 05:20:43;;;;;;;3.70;1.30;;;;;;;18.88;55.61;99553.56;5018923;28;20443;-67
2022/12/23 05:23:08;;;;;;;4.73;1.27;;;;;;;18.88;55.32;99549.88;5035553;28;20188;-67
2022/12/23 05:25:34;;;;;;;3.30;1.40;;;;;;;18.87;55.19;99560.47;5031080;28;20462;-67
2022/12/23 05:28:00;;;;;;;4.77;1.40;;;;;;;18.93;55.08;99573.22;5014455;28;20188;-67
2022/12/23 05:30:25;;;;;;;3.63;1.40;;;;;;;18.92;55.13;99570.75;5014623;28;20933;-67
2022/12/23 05:32:54;;;;;;;4.07;1.30;;;;;;;18.93;55.17;99575.22;5029436;28;21017;-67
2022/12/23 05:35:20;;;;;;;3.50;1.20;;;;;;;18.91;55.05;99572.75;5014764;28;20872;-67
2022/12/23 05:37:46;;;;;;;3.90;1.50;;;;;;;18.94;55.09;99569.13;5031142;28;20424;-67
2022/12/23 05:40:11;;;;;;;3.83;1.33;;;;;;;18.93;55.07;99570.34;5032500;28;20894;-67
2022/12/23 05:42:37;;;;;;;3.27;1.37;;;;;;;18.93;54.98;99567.47;5028918;28;20643;-67
2022/12/23 05:45:03;;;;;;;3.00;1.23;;;;;;;18.95;55.06;99572.78;5031191;28;20192;-67
2022/12/23 05:47:28;;;;;;;3.87;1.27;;;;;;;18.93;55.21;99576.06;5022423;28;20284;-67
2022/12/23 05:49:53;;;;;;;4.60;1.50;;;;;;;18.92;54.75;99574.41;5014253;28;20196;-67
2022/12/23 05:52:19;;;;;;;3.77;1.30;;;;;;;18.90;55.16;99582.56;5032368;28;20165;-68
2022/12/23 05:54:44;;;;;;;2.67;0.90;;;;;;;18.95;55.03;99587.09;5052176;28;20219;-67
2022/12/23 05:57:10;;;;;;;2.80;1.10;;;;;;;18.94;54.81;99582.59;5071928;28;20163;-67
2022/12/23 05:59:35;;;;;;;5.20;1.20;;;;;;;18.91;55.33;99586.28;5046004;28;20202;-67
2022/12/23 06:02:00;;;;;;;6.27;1.63;;;;;;;18.92;54.98;99585.03;5063813;28;20190;-67
2022/12/23 06:04:26;;;;;;;4.70;1.20;;;;;;;18.94;55.04;99588.31;5070642;28;20203;-67
2022/12/23 06:06:51;;;;;;;4.20;1.87;;;;;;;18.94;55.05;99580.56;5066863;28;20183;-67
2022/12/23 06:09:17;;;;;;;8.10;1.90;;;;;;;18.93;54.86;99573.22;5033039;28;20179;-67
2022/12/23 06:11:42;;;;;;;3.17;1.33;;;;;;;18.94;54.89;99574.00;5052256;28;20175;-68
2022/12/23 06:14:08;;;;;;;3.33;1.40;;;;;;;18.92;55.13;99574.41;5057147;28;20558;-67
2022/12/23 06:16:34;;;;;;;5.27;1.30;;;;;;;18.94;55.20;99571.97;5044560;28;20725;-67
2022/12/23 06:18:59;;;;;;;4.63;1.30;;;;;;;18.94;54.76;99577.69;5048774;28;20488;-67
2022/12/23 06:21:24;;;;;;;4.20;1.33;;;;;;;18.93;55.26;99570.34;5051525;28;20184;-67
2022/12/23 06:23:50;;;;;;;5.40;1.50;;;;;;;18.92;55.17;99568.69;5051604;28;20167;-67
2022/12/23 06:26:15;;;;;;;2.90;1.10;;;;;;;18.95;55.34;99567.88;5035779;28;20589;-67
2022/12/23 06:28:41;;;;;;;4.57;1.70;;;;;;;18.91;55.58;99567.03;5033715;28;20622;-67
2022/12/23 06:31:06;;;;;;;3.47;1.27;;;;;;;18.95;54.99;99565.03;5056101;28;20179;-67
2022/12/23 06:33:32;;;;;;;4.93;1.60;;;;;;;18.97;55.07;99571.16;5053454;28;20653;-68
2022/12/23 06:35:57;;;;;;;4.90;1.30;;;;;;;18.95;54.77;99576.47;5053138;28;20203;-67
2022/12/23 06:38:23;;;;;;;2.90;1.10;;;;;;;18.95;54.78;99579.34;5047326;28;20202;-68
2022/12/23 06:40:48;;;;;;;4.00;1.40;;;;;;;18.98;54.78;99580.56;5053176;28;20164;-68
2022/12/23 06:43:14;;;;;;;4.00;1.30;;;;;;;18.97;54.83;99590.38;5053075;28;20179;-68
2022/12/23 06:45:40;;;;;;;3.47;1.17;;;;;;;18.97;54.76;99587.53;5052167;28;20199;-68
2022/12/23 06:48:05;;;;;;;3.80;1.20;;;;;;;18.94;54.71;99594.03;5034842;28;20646;-68
2022/12/23 06:50:31;;;;;;;5.13;1.20;;;;;;;18.95;54.81;99607.09;5033024;28;20480;-68
2022/12/23 06:52:56;;;;;;;8.47;1.50;;;;;;;18.96;54.71;99600.19;5035720;28;20471;-68
2022/12/23 06:55:22;;;;;;;3.80;1.30;;;;;;;18.94;55.25;99606.31;5050921;28;20698;-68
2022/12/23 06:57:47;;;;;;;4.43;1.30;;;;;;;18.94;54.87;99603.44;5033219;28;20190;-67
2022/12/23 07:00:13;;;;;;;3.43;1.23;;;;;;;18.92;55.03;99603.00;5053448;28;20237;-69
2022/12/23 07:02:39;;;;;;;4.47;1.17;;;;;;;18.95;55.07;99605.06;5050930;28;20225;-68
2022/12/23 07:05:05;;;;;;;3.90;1.07;;;;;;;18.96;55.02;99603.84;5034599;28;20454;-68
2022/12/23 07:07:32;;;;;;;5.63;1.50;;;;;;;18.96;55.05;99597.31;5033070;28;20679;-68
2022/12/23 07:09:57;;;;;;;2.37;1.00;;;;;;;18.98;54.22;99603.47;5018598;28;20434;-68
2022/12/23 07:12:22;;;;;;;4.00;1.23;;;;;;;18.99;54.99;99619.38;5039570;28;20418;-68
2022/12/23 07:14:48;;;;;;;2.37;0.93;;;;;;;18.98;54.92;99623.47;5049272;28;20183;-68
2022/12/23 07:17:13;;;;;;;2.70;1.30;;;;;;;18.99;54.85;99614.50;5052724;28;20156;-68
2022/12/23 07:19:40;;;;;;;3.57;1.10;;;;;;;18.98;55.06;99620.63;5052737;28;20188;-67
2022/12/23 07:22:06;;;;;;;6.57;2.40;;;;;;;18.98;54.82;99621.44;5050619;28;20171;-68
2022/12/23 07:24:31;;;;;;;3.90;1.17;;;;;;;18.98;54.95;99623.47;5049635;28;20414;-67
2022/12/23 07:26:57;;;;;;;6.50;1.60;;;;;;;18.98;55.00;99627.16;5044719;28;20183;-68
2022/12/23 07:29:23;;;;;;;4.03;1.40;;;;;;;19.01;54.80;99629.22;5053714;28;20208;-67
2022/12/23 07:31:48;;;;;;;5.10;1.27;;;;;;;19.01;54.74;99625.56;5071450;28;20163;-68
2022/12/23 07:34:13;;;;;;;3.70;1.20;;;;;;;18.97;54.68;99631.22;5052322;28;20507;-67
2022/12/23 07:36:39;;;;;;;4.50;1.30;;;;;;;18.96;54.72;99626.72;5053889;28;20180;-68
2022/12/23 07:39:04;;;;;;;4.70;1.20;;;;;;;18.95;54.77;99630.81;5047971;28;20167;-67
2022/12/23 07:41:30;;;;;;;3.93;1.03;;;;;;;18.95;54.94;99627.97;5032358;28;20168;-67
2022/12/23 07:43:55;;;;;;;4.10;1.57;;;;;;;18.96;54.66;99625.94;5065363;28;20221;-68
2022/12/23 07:46:21;;;;;;;4.03;1.20;;;;;;;18.99;54.64;99628.81;5031359;28;20219;-67
2022/12/23 07:48:46;;;;;;;6.40;1.53;;;;;;;18.99;55.02;99628.81;5047527;28;20160;-66
2022/12/23 07:51:12;;;;;;;9.83;1.50;;;;;;;18.98;54.75;99632.06;5031665;28;20201;-68
2022/12/23 07:53:37;;;;;;;4.10;1.37;;;;;;;19.00;54.88;99627.59;5049346;28;20180;-68
2022/12/23 07:56:03;;;;;;;6.57;1.53;;;;;;;18.99;55.22;99630.84;5029374;28;20156;-68
2022/12/23 07:58:28;;;;;;;4.17;1.47;;;;;;;18.99;55.05;99625.94;5058316;28;20650;-66
2022/12/23 08:01:01;;;;;;;4.53;1.30;;;;;;;19.00;54.93;99630.44;5043534;28;20183;-66
2022/12/23 08:03:26;;;;;;;3.50;1.20;;;;;;;19.01;54.87;99632.06;5046285;28;20191;-66
2022/12/23 08:06:12;;;;;;;3.67;1.30;;;;;;;19.00;54.85;99636.16;5049037;28;20458;-65
2022/12/23 08:08:40;;;;;;;3.93;1.10;;;;;;;19.05;54.61;99632.09;5048217;28;20227;-68
2022/12/23 08:11:07;;;;;;;7.73;1.37;;;;;;;19.01;54.72;99629.22;5054444;28;20461;-66
2022/12/23 08:13:34;;;;;;;5.53;1.57;;;;;;;18.98;55.03;99626.34;5048049;28;20439;-65
2022/12/23 08:16:00;;;;;;;3.63;1.30;;;;;;;18.98;54.90;99630.03;5034331;28;20421;-66
2022/12/23 08:18:25;;;;;;;4.10;1.40;;;;;;;19.00;54.51;99626.75;5018277;28;20436;-66
2022/12/23 08:20:58;;;;;;;10.93;1.60;;;;;;;19.00;54.79;99623.88;5047440;28;20314;-66
2022/12/23 08:23:24;;;;;;;3.87;1.40;;;;;;;19.03;55.17;99612.47;5061339;28;20183;-69
2022/12/23 08:26:07;;;;;;;6.40;2.83;;;;;;;19.08;58.08;99612.09;5052889;28;20463;-66
2022/12/23 08:28:32;;;;;;;6.40;3.97;;;;;;;19.29;64.25;99603.63;5059071;28;20191;-66
2022/12/23 08:31:06;;;;;;;7.13;4.20;;;;;;;19.65;63.05;99599.66;5063813;28;20424;-67
2022/12/23 08:33:32;;;;;;;10.53;3.80;;;;;;;19.48;61.79;99614.75;5051483;28;20637;-66
2022/12/23 08:35:58;;;;;;;10.63;3.63;;;;;;;19.27;60.66;99611.78;5070038;28;20478;-67
2022/12/23 08:38:23;;;;;;;7.83;3.17;;;;;;;19.25;60.43;99622.84;5072850;28;20901;-67
2022/12/23 08:40:48;;;;;;;7.80;3.23;;;;;;;19.29;59.41;99631.44;5065781;28;20568;-68
2022/12/23 08:43:14;;;;;;;10.03;3.33;;;;;;;19.28;59.17;99635.50;5049933;28;20229;-67
2022/12/23 08:45:39;;;;;;;8.43;3.10;;;;;;;19.27;58.63;99633.88;5048023;28;20544;-67
2022/12/23 08:48:05;;;;;;;7.67;2.80;;;;;;;19.28;59.19;99629.78;5031290;28;20564;-68
2022/12/23 08:50:35;;;;;;;9.93;2.90;;;;;;;19.27;58.78;99633.88;5028803;28;20270;-67
2022/12/23 08:53:00;;;;;;;4.93;2.30;;;;;;;19.26;58.90;99637.97;5039459;28;20187;-66
2022/12/23 08:55:25;;;;;;;8.83;2.60;;;;;;;19.24;58.84;99620.38;5068285;28;20465;-67
2022/12/23 08:57:51;;;;;;;5.83;2.67;;;;;;;19.23;58.69;99622.44;5064876;28;20190;-67
2022/12/23 09:00:17;;;;;;;8.13;2.30;;;;;;;19.23;58.51;99616.69;5049290;28;20160;-67
2022/12/23 09:02:42;;;;;;;6.23;2.43;;;;;;;19.24;58.45;99609.75;5032958;28;20206;-68
2022/12/23 09:05:08;;;;;;;6.63;2.90;;;;;;;19.28;58.40;99612.63;5066563;28;20255;-68
2022/12/23 09:07:33;;;;;;;10.50;2.70;;;;;;;19.26;58.13;99598.72;5049429;28;20213;-68
2022/12/23 09:09:59;;;;;;;5.77;2.20;;;;;;;19.31;57.73;99588.94;5071914;28;20255;-66
2022/12/23 09:12:24;;;;;;;6.50;2.20;;;;;;;19.57;58.34;99583.66;5067620;28;20195;-66
2022/12/23 09:14:49;;;;;;;12.60;2.70;;;;;;;19.75;58.24;99583.72;5066121;28;20191;-66
2022/12/23 09:17:16;;;;;;;6.03;2.07;;;;;;;19.68;57.54;99573.09;5040085;28;20222;-66
2022/12/23 09:19:42;;;;;;;10.00;2.47;;;;;;;19.52;57.45;99581.19;5064853;28;20550;-66
2022/12/23 09:22:08;;;;;;;7.33;3.50;;;;;;;19.36;58.51;99574.22;5046843;28;20444;-65
2022/12/23 09:24:34;;;;;;;7.77;3.13;;;;;;;19.24;59.92;99575.41;5048259;28;20179;-66
2022/12/23 09:26:59;;;;;;;7.90;2.67;;;;;;;19.49;59.59;99576.31;5073582;28;20483;-65
2022/12/23 09:29:25;;;;;;;5.60;2.70;;;;;;;19.51;59.86;99581.63;5031328;28;20543;-65
2022/12/23 09:31:50;;;;;;;7.93;3.30;;;;;;;19.51;59.66;99587.34;5068803;28;20186;-65
2022/12/23 09:34:15;;;;;;;6.43;2.93;;;;;;;19.49;59.67;99581.19;5063768;28;20187;-66
2022/12/23 09:36:41;;;;;;;9.97;3.30;;;;;;;19.45;59.17;99581.19;5084874;28;20175;-66
2022/12/23 09:39:06;;;;;;;8.40;2.40;;;;;;;19.37;58.98;99573.00;5084104;28;20183;-65
2022/12/23 09:41:54;;;;;;;6.03;2.10;;;;;;;19.33;58.40;99572.16;5051403;28;20176;-66
2022/12/23 09:44:44;;;;;;;6.90;2.80;;;;;;;19.35;58.70;99581.16;5030976;28;20195;-66
2022/12/23 09:47:12;;;;;;;5.47;2.63;;;;;;;19.33;58.85;99580.75;5054011;28;20477;-66
2022/12/23 09:49:40;;;;;;;5.63;2.83;;;;;;;19.42;59.87;99570.53;5041099;28;20978;-68
2022/12/23 09:52:08;;;;;;;5.40;2.97;;;;;;;19.51;60.04;99573.84;5058997;28;20448;-66
2022/12/23 09:54:47;;;;;;;7.90;3.10;;;;;;;19.48;60.03;99560.38;5044555;28;20526;-67
2022/12/23 09:57:17;;;;;;;7.20;2.43;;;;;;;19.46;59.62;99562.00;5054053;28;20773;-67
2022/12/23 10:00:11;;;;;;;8.53;3.30;;;;;;;19.39;59.46;99554.19;5042302;28;20449;-67
2022/12/23 10:02:54;;;;;;;6.50;3.07;;;;;;;19.31;59.46;99560.31;5064480;28;20417;-67
2022/12/23 10:05:26;;;;;;;8.87;3.43;;;;;;;19.30;59.00;99564.38;5032710;28;20458;-67
2022/12/23 10:07:57;;;;;;;6.63;3.17;;;;;;;19.28;58.63;99553.34;5071582;28;20951;-67
2022/12/23 10:10:31;;;;;;;16.63;3.43;;;;;;;19.27;58.80;99560.28;5055285;28;20437;-67
2022/12/23 10:12:57;;;;;;;14.07;3.47;;;;;;;19.27;59.67;99560.28;5049504;28;20444;-67
2022/12/23 10:15:27;;;;;;;12.47;3.33;;;;;;;19.28;62.17;99561.94;5035933;28;20441;-66
2022/12/23 10:17:55;;;;;;;16.20;3.63;;;;;;;19.19;61.26;99546.31;5035687;28;20640;-67
2022/12/23 10:20:31;;;;;;;12.00;3.67;;;;;;;19.24;61.11;99534.50;5044474;28;20452;-67
2022/12/23 10:22:56;;;;;;;11.40;3.03;;;;;;;19.23;60.55;99530.03;5053631;28;20521;-67
2022/12/23 10:25:32;;;;;;;17.30;4.37;;;;;;;19.24;60.57;99534.50;5051325;28;20466;-68
2022/12/23 10:27:57;;;;;;;10.43;3.00;;;;;;;19.22;60.36;99532.03;5044698;28;20182;-69
2022/12/23 10:30:23;;;;;;;10.80;3.00;;;;;;;19.26;60.40;99532.09;5036793;28;20461;-67
2022/12/23 10:33:02;;;;;;;14.33;3.40;;;;;;;19.25;60.29;99539.00;5051672;28;20226;-68
2022/12/23 10:35:42;;;;;;;13.87;3.07;;;;;;;19.21;60.38;99524.66;5053513;28;20159;-68
2022/12/23 10:38:11;;;;;;;10.10;3.60;;;;;;;19.21;60.38;99518.13;5069685;28;20471;-67
2022/12/23 10:41:08;;;;;;;11.00;3.07;;;;;;;19.22;59.96;99520.59;5071936;28;20421;-67
2022/12/23 10:44:05;;;;;;;17.63;2.73;;;;;;;19.25;59.96;99511.22;5034075;28;20436;-68
2022/12/23 10:46:43;;;;;;;12.10;3.07;;;;;;;19.20;59.94;99511.59;5052126;28;20453;-68
2022/12/23 10:49:39;;;;;;;12.00;2.60;;;;;;;19.22;59.77;99503.44;5050713;28;20406;-67
2022/12/23 10:52:11;;;;;;;12.73;3.00;;;;;;;19.19;59.80;99498.50;5051685;28;20465;-67
2022/12/23 10:54:36;;;;;;;12.73;3.63;;;;;;;19.18;60.31;99491.16;5021635;28;20513;-68
2022/12/23 10:57:02;;;;;;;11.30;3.10;;;;;;;19.19;59.49;99495.66;4997643;28;20911;-67
2022/12/23 10:59:30;;;;;;;7.77;2.87;;;;;;;19.21;59.58;99496.03;5012018;28;20173;-68
2022/12/23 11:02:11;;;;;;;11.30;2.73;;;;;;;19.21;59.36;99480.94;5014189;28;20672;-68
2022/12/23 11:04:44;;;;;;;12.63;2.87;;;;;;;19.24;59.47;99486.69;5019472;28;20958;-69
2022/12/23 11:07:12;;;;;;;7.67;3.07;;;;;;;19.23;59.13;99492.81;4996325;28;20411;-68
2022/12/23 11:09:43;;;;;;;11.67;2.90;;;;;;;19.23;59.30;99482.19;5013838;28;20440;-68
2022/12/23 11:12:09;;;;;;;5.27;2.40;;;;;;;19.23;58.96;99467.06;5000316;28;20941;-68
2022/12/23 11:14:37;;;;;;;7.80;3.23;;;;;;;19.18;59.31;99465.41;5014115;28;20435;-68
2022/12/23 11:17:03;;;;;;;10.20;2.73;;;;;;;19.19;58.90;99454.75;5011599;28;20400;-68
2022/12/23 11:19:29;;;;;;;10.80;2.93;;;;;;;19.20;59.04;99450.66;5032382;28;20509;-68
2022/12/23 11:21:56;;;;;;;12.80;3.57;;;;;;;19.21;58.92;99438.81;5032062;28;20423;-68
2022/12/23 11:24:22;;;;;;;8.93;2.77;;;;;;;19.20;58.74;99425.75;5028845;28;20244;-68
2022/12/23 11:26:58;;;;;;;14.83;2.50;;;;;;;19.18;58.66;99419.63;5012819;28;20456;-68
2022/12/23 11:29:28;;;;;;;9.70;2.50;;;;;;;19.17;59.37;99425.75;5004035;28;20183;-68
2022/12/23 11:31:53;;;;;;;9.80;2.70;;;;;;;19.19;58.89;99426.97;5013425;28;20459;-68
2022/12/23 11:34:20;;;;;;;7.53;2.73;;;;;;;19.19;58.67;99424.09;5011298;28;20828;-68
2022/12/23 11:36:56;;;;;;;6.80;2.10;;;;;;;19.20;58.76;99425.75;4996624;28;20207;-68
2022/12/23 11:39:32;;;;;;;7.03;2.20;;;;;;;19.16;58.54;99416.31;5005725;28;20435;-68
2022/12/23 11:42:02;;;;;;;10.87;2.77;;;;;;;19.15;58.73;99416.72;5024735;28;20439;-68
2022/12/23 11:44:41;;;;;;;7.47;2.23;;;;;;;19.18;58.87;99416.75;5012220;28;20466;-68
2022/12/23 11:47:21;;;;;;;5.80;2.10;;;;;;;19.21;58.54;99412.25;5010808;28;20419;-68
2022/12/23 11:49:48;;;;;;;8.53;2.30;;;;;;;19.18;58.37;99405.31;5014419;28;20432;-68
2022/12/23 11:52:16;;;;;;;7.47;2.63;;;;;;;19.16;58.44;99399.16;5012999;28;20428;-68
2022/12/23 11:54:44;;;;;;;8.30;2.20;;;;;;;19.17;58.22;99394.25;5030285;28;20458;-68
2022/12/23 11:57:14;;;;;;;9.87;2.47;;;;;;;19.18;58.42;99375.88;5029209;28;20445;-68
2022/12/23 11:59:41;;;;;;;8.50;2.80;;;;;;;19.16;58.29;99386.91;5038152;28;20905;-68
2022/12/23 12:02:39;;;;;;;5.90;2.10;;;;;;;19.21;58.22;99381.59;5052965;28;20420;-68